Time;durP1;ratioP1;P1;durP2;ratioP2;P2;SDS_P1;SDS_P2;PMS_P1;PMS_P2;Temp;Humidity;BMP_temperature;BMP_pressure;BME280_temperature;BME280_humidity;BME280_pressure;Samples;Min_cycle;Max_cycle;Signal;HPM_P1;HPM_P2
2022/06/05 00:01:36;;;;;;;11.55;10.52;;;;;;;17.81;94.16;95658.78;5076452;28;20165;-79
2022/06/05 00:04:32;;;;;;;10.80;9.80;;;;;;;17.86;93.94;95652.97;5094930;28;20199;-80
2022/06/05 00:07:52;;;;;;;11.50;10.30;;;;;;;17.67;94.77;95655.22;5060557;28;20180;-80
2022/06/05 00:10:21;;;;;;;12.95;11.13;;;;;;;17.64;94.35;95660.81;5008507;28;20191;-81
2022/06/05 00:12:52;;;;;;;12.18;10.88;;;;;;;17.62;95.01;95648.88;5060490;28;20180;-80
2022/06/05 00:15:18;;;;;;;11.13;10.20;;;;;;;17.75;94.60;95657.69;5092918;28;20192;-79
2022/06/05 00:17:43;;;;;;;11.00;9.90;;;;;;;17.67;94.61;95644.72;5058766;28;20250;-80
2022/06/05 00:20:09;;;;;;;16.08;11.30;;;;;;;17.61;94.48;95642.00;5059201;28;20194;-79
2022/06/05 00:22:37;;;;;;;12.23;11.02;;;;;;;17.54;94.93;95631.44;5109672;28;20180;-80
2022/06/05 00:25:02;;;;;;;13.43;11.68;;;;;;;17.58;94.94;95622.22;5075241;28;20357;-80
2022/06/05 00:27:39;;;;;;;17.23;15.43;;;;;;;17.63;94.96;95627.69;5075899;28;20212;-80
2022/06/05 00:30:10;;;;;;;16.67;15.02;;;;;;;17.52;95.40;95630.81;5089922;28;20534;-79
2022/06/05 00:32:42;;;;;;;14.88;13.45;;;;;;;17.51;95.17;95640.50;5073762;28;20241;-80
2022/06/05 00:35:11;;;;;;;17.35;15.55;;;;;;;17.42;96.40;95646.09;5054994;28;20181;-80
2022/06/05 00:37:59;;;;;;;17.08;15.55;;;;;;;17.42;96.13;95639.03;5055694;28;20674;-81
2022/06/05 00:40:40;;;;;;;16.88;15.38;;;;;;;17.38;96.07;95636.94;5055040;28;20177;-80
2022/06/05 00:43:10;;;;;;;16.20;14.80;;;;;;;17.34;96.46;95657.50;5073962;28;20173;-80
2022/06/05 00:45:35;;;;;;;14.20;12.85;;;;;;;17.31;96.37;95664.94;5038305;28;20597;-80
2022/06/05 00:48:01;;;;;;;14.00;12.65;;;;;;;17.30;96.41;95674.63;5039056;28;20211;-81
2022/06/05 00:50:29;;;;;;;11.52;10.43;;;;;;;17.26;96.56;95689.94;5038620;28;20205;-80
2022/06/05 00:52:58;;;;;;;11.98;10.73;;;;;;;17.27;96.59;95707.31;5055441;28;20169;-81
2022/06/05 00:55:25;;;;;;;11.07;10.18;;;;;;;17.26;97.34;95710.94;5056028;28;20177;-80
2022/06/05 00:57:53;;;;;;;12.05;10.80;;;;;;;17.23;97.33;95708.69;5056548;28;20276;-80
2022/06/05 01:00:22;;;;;;;11.27;10.15;;;;;;;17.19;97.73;95714.47;5040952;28;20184;-80
2022/06/05 01:02:52;;;;;;;11.60;10.00;;;;;;;17.19;98.02;95723.16;5057068;28;20181;-81
2022/06/05 01:05:19;;;;;;;11.95;10.75;;;;;;;17.17;98.39;95727.78;5056826;28;20493;-81
2022/06/05 01:07:45;;;;;;;11.75;10.68;;;;;;;17.19;98.06;95735.47;5075325;28;20204;-80
2022/06/05 01:10:11;;;;;;;11.32;10.40;;;;;;;17.16;98.71;95728.78;5040544;28;20176;-81
2022/06/05 01:13:00;;;;;;;11.32;10.43;;;;;;;17.16;98.97;95715.66;5057653;28;20176;-80
2022/06/05 01:15:32;;;;;;;10.52;9.63;;;;;;;17.34;98.15;95696.06;5076213;28;20173;-81
2022/06/05 01:18:16;;;;;;;10.27;9.38;;;;;;;17.27;98.06;95688.13;5059138;28;20197;-80
2022/06/05 01:21:12;;;;;;;10.80;9.68;;;;;;;17.19;98.15;95694.28;5076119;28;20233;-79
2022/06/05 01:23:55;;;;;;;12.55;11.30;;;;;;;17.14;98.25;95696.69;5114024;28;20173;-78
2022/06/05 01:26:34;;;;;;;11.77;10.77;;;;;;;16.96;100.00;95701.47;5097499;28;20192;-78
2022/06/05 01:29:05;;;;;;;11.70;10.60;;;;;;;17.12;99.95;95688.16;5080318;28;20192;-78
2022/06/05 01:31:32;;;;;;;11.55;10.43;;;;;;;17.17;99.15;95680.53;5110173;28;20209;-79
2022/06/05 01:34:17;;;;;;;11.38;10.30;;;;;;;17.04;99.69;95672.50;5054980;28;20169;-79
2022/06/05 01:37:14;;;;;;;11.32;10.25;;;;;;;17.06;99.84;95673.16;5033593;28;20187;-80
2022/06/05 01:40:03;;;;;;;12.48;10.80;;;;;;;17.05;99.79;95687.28;5030252;28;20216;-80
2022/06/05 01:42:37;;;;;;;11.38;10.38;;;;;;;17.00;99.98;95684.38;5054874;28;20276;-79
2022/06/05 01:45:15;;;;;;;12.30;11.25;;;;;;;17.01;100.00;95682.56;5053819;28;20157;-80
2022/06/05 01:47:43;;;;;;;12.00;10.80;;;;;;;17.03;100.00;95667.44;5039992;28;20211;-79
2022/06/05 01:50:14;;;;;;;11.55;10.55;;;;;;;17.05;100.00;95652.34;5054880;28;20212;-80
2022/06/05 01:52:52;;;;;;;12.13;10.88;;;;;;;16.95;100.00;95644.75;5037870;28;20648;-80
2022/06/05 01:55:36;;;;;;;12.02;10.98;;;;;;;17.03;100.00;95636.78;5037222;28;20267;-81
2022/06/05 01:58:03;;;;;;;11.90;10.90;;;;;;;16.97;100.00;95630.50;5054392;28;20298;-80
2022/06/05 02:00:29;;;;;;;11.80;10.80;;;;;;;16.96;100.00;95612.28;5054557;28;20172;-80
2022/06/05 02:03:00;;;;;;;11.02;10.10;;;;;;;16.97;99.94;95603.44;5054271;28;20518;-80
2022/06/05 02:05:31;;;;;;;10.85;9.82;;;;;;;17.09;99.53;95583.56;5063652;28;20386;-80
2022/06/05 02:08:03;;;;;;;11.57;10.60;;;;;;;17.05;99.29;95571.00;5088304;28;20197;-79
2022/06/05 02:10:39;;;;;;;11.32;10.32;;;;;;;17.10;98.21;95547.66;5054127;28;20269;-79
2022/06/05 02:13:04;;;;;;;11.57;9.98;;;;;;;17.06;98.47;95528.06;5054609;28;20523;-79
2022/06/05 02:15:30;;;;;;;11.70;10.60;;;;;;;17.12;98.14;95508.91;5053688;28;20205;-79
2022/06/05 02:17:56;;;;;;;11.80;10.55;;;;;;;17.04;97.69;95486.25;5054310;28;20185;-80
2022/06/05 02:20:22;;;;;;;11.57;10.57;;;;;;;17.06;97.75;95479.03;5054432;28;20177;-79
2022/06/05 02:22:49;;;;;;;11.40;10.45;;;;;;;17.10;97.50;95474.19;5053953;28;20675;-79
2022/06/05 02:25:19;;;;;;;11.40;10.30;;;;;;;17.05;97.00;95461.66;5087287;28;20173;-80
2022/06/05 02:27:45;;;;;;;11.35;10.35;;;;;;;17.02;97.98;95445.47;5037541;28;20352;-79
2022/06/05 02:30:12;;;;;;;11.57;10.55;;;;;;;16.96;97.81;95434.75;5053987;28;20263;-79
2022/06/05 02:32:56;;;;;;;11.60;9.80;;;;;;;16.99;97.81;95429.13;5070652;28;20304;-80
2022/06/05 02:35:52;;;;;;;11.32;10.38;;;;;;;16.99;98.27;95423.06;5053407;28;20180;-80
2022/06/05 02:38:46;;;;;;;11.38;10.32;;;;;;;16.95;98.02;95412.13;5072124;28;20205;-79
2022/06/05 02:41:28;;;;;;;12.38;11.18;;;;;;;16.91;98.58;95424.00;5044409;28;20182;-79
2022/06/05 02:44:30;;;;;;;11.25;10.15;;;;;;;16.88;98.61;95424.41;5053534;28;20601;-80
2022/06/05 02:46:55;;;;;;;11.20;10.30;;;;;;;16.93;98.86;95427.25;5084908;28;20238;-80
2022/06/05 02:49:26;;;;;;;11.57;10.48;;;;;;;16.95;98.44;95432.28;5072068;28;20521;-79
2022/06/05 02:51:52;;;;;;;13.40;12.10;;;;;;;16.90;98.65;95450.44;5053584;28;20196;-80
2022/06/05 02:54:20;;;;;;;11.63;10.60;;;;;;;16.93;98.56;95461.34;5053065;28;20271;-80
2022/06/05 02:56:45;;;;;;;12.05;10.95;;;;;;;16.88;98.50;95460.31;5053841;28;20170;-80
2022/06/05 02:59:10;;;;;;;12.95;11.65;;;;;;;16.88;98.85;95460.31;5053663;28;20256;-80
2022/06/05 03:04:20;;;;;;;12.18;11.18;;;;;;;17.05;98.51;95435.44;5073701;28;20187;-81
2022/06/05 03:06:45;;;;;;;12.73;11.45;;;;;;;17.11;98.26;95420.72;5040802;28;20188;-79
2022/06/05 03:09:11;;;;;;;11.80;10.60;;;;;;;17.11;97.37;95423.34;5093039;28;20186;-79
2022/06/05 03:11:37;;;;;;;12.85;11.55;;;;;;;17.03;98.56;95426.09;5059589;28;20205;-81
2022/06/05 03:14:02;;;;;;;13.32;12.02;;;;;;;17.05;98.33;95424.09;5059239;28;20605;-81
2022/06/05 03:16:30;;;;;;;12.18;11.07;;;;;;;17.03;98.90;95432.16;5092817;28;20679;-80
2022/06/05 03:18:56;;;;;;;11.82;10.82;;;;;;;17.13;98.17;95437.88;5060794;28;20189;-81
2022/06/05 03:21:21;;;;;;;11.80;10.60;;;;;;;17.12;97.99;95459.06;5093512;28;20259;-80
2022/06/05 03:23:47;;;;;;;13.43;11.80;;;;;;;17.13;98.10;95486.94;5075740;28;20181;-81
2022/06/05 03:26:13;;;;;;;12.85;11.63;;;;;;;16.95;99.23;95518.84;5060242;28;20454;-80
2022/06/05 03:28:39;;;;;;;12.23;11.13;;;;;;;16.87;100.00;95539.97;5077142;28;20201;-80
2022/06/05 03:31:08;;;;;;;13.00;11.77;;;;;;;16.73;100.00;95554.75;5060586;28;20208;-81
2022/06/05 03:33:34;;;;;;;12.18;11.02;;;;;;;16.73;100.00;95583.59;5060164;28;20175;-81
2022/06/05 03:35:59;;;;;;;12.85;11.65;;;;;;;16.88;100.00;95615.03;5060805;28;20177;-81
2022/06/05 03:38:25;;;;;;;12.75;11.48;;;;;;;16.90;100.00;95652.38;5074919;28;20258;-84
2022/06/05 03:40:51;;;;;;;13.80;11.55;;;;;;;16.68;100.00;95665.41;5090781;28;20176;-82
2022/06/05 03:43:16;;;;;;;14.02;12.45;;;;;;;16.65;100.00;95676.25;5071247;28;20528;-83
2022/06/05 03:45:42;;;;;;;14.27;13.07;;;;;;;16.66;100.00;95670.00;5075415;28;20212;-82
2022/06/05 03:48:08;;;;;;;14.20;13.00;;;;;;;16.84;100.00;95659.16;5074486;28;20203;-82
2022/06/05 03:50:33;;;;;;;14.40;12.98;;;;;;;16.81;100.00;95643.00;5058367;28;20284;-81
2022/06/05 03:52:59;;;;;;;13.77;12.68;;;;;;;16.96;100.00;95620.16;5091980;28;20754;-83
2022/06/05 03:55:26;;;;;;;14.30;13.07;;;;;;;16.87;100.00;95610.78;5049140;28;20753;-82
2022/06/05 03:57:52;;;;;;;13.38;12.00;;;;;;;16.93;100.00;95591.69;5075287;28;20571;-82
2022/06/05 04:00:18;;;;;;;14.63;13.32;;;;;;;16.92;100.00;95569.06;5059025;28;20192;-82
2022/06/05 04:02:44;;;;;;;14.32;12.82;;;;;;;17.00;100.00;95558.47;5078933;28;20177;-82
2022/06/05 04:05:13;;;;;;;14.85;13.45;;;;;;;17.09;100.00;95546.84;5059689;28;20245;-83
2022/06/05 04:07:39;;;;;;;14.73;13.35;;;;;;;17.06;100.00;95539.38;5077211;28;20189;-82
2022/06/05 04:10:05;;;;;;;14.27;12.85;;;;;;;17.05;100.00;95532.50;5077524;28;20533;-83
2022/06/05 04:12:31;;;;;;;14.13;12.82;;;;;;;17.05;100.00;95529.88;5060915;28;20211;-83
2022/06/05 04:14:56;;;;;;;13.98;12.77;;;;;;;17.01;100.00;95533.03;5060856;28;20176;-82
2022/06/05 04:17:21;;;;;;;14.50;13.23;;;;;;;16.91;100.00;95543.84;5097184;28;20759;-81
2022/06/05 04:19:46;;;;;;;15.77;14.32;;;;;;;16.91;100.00;95543.84;5060563;28;20188;-82
2022/06/05 04:22:12;;;;;;;15.50;14.02;;;;;;;16.90;100.00;95548.28;5095739;28;20168;-82
2022/06/05 04:24:37;;;;;;;18.65;15.65;;;;;;;16.87;100.00;95543.41;5059629;28;20534;-83
2022/06/05 04:27:03;;;;;;;16.10;14.60;;;;;;;16.88;100.00;95542.41;5059958;28;20193;-82
2022/06/05 04:29:28;;;;;;;15.70;14.23;;;;;;;16.90;100.00;95539.59;5077285;28;20268;-82
2022/06/05 04:31:53;;;;;;;16.63;14.98;;;;;;;16.90;100.00;95552.72;5059970;28;20200;-82
2022/06/05 04:34:22;;;;;;;15.73;14.32;;;;;;;16.94;100.00;95580.19;5059837;28;20628;-83
2022/06/05 04:36:47;;;;;;;17.13;15.18;;;;;;;16.94;100.00;95594.13;5077787;28;20528;-82
2022/06/05 04:39:13;;;;;;;16.15;14.63;;;;;;;16.90;100.00;95607.81;5060615;28;20188;-83
2022/06/05 04:41:39;;;;;;;15.35;13.70;;;;;;;16.77;100.00;95618.13;5077356;28;20636;-82
2022/06/05 04:44:05;;;;;;;14.80;13.50;;;;;;;16.83;100.00;95618.22;5076515;28;20181;-83
2022/06/05 04:46:31;;;;;;;15.73;14.32;;;;;;;16.78;100.00;95632.84;5077581;28;20172;-82
2022/06/05 04:48:56;;;;;;;14.93;13.70;;;;;;;16.67;100.00;95644.59;5060295;28;20264;-83
2022/06/05 04:51:23;;;;;;;17.23;15.38;;;;;;;16.70;100.00;95668.69;5060299;28;20204;-84
2022/06/05 04:53:49;;;;;;;17.60;16.00;;;;;;;16.61;100.00;95700.41;5059755;28;20181;-83
2022/06/05 04:56:18;;;;;;;17.38;15.63;;;;;;;16.49;100.00;95713.13;5094679;28;20188;-83
2022/06/05 04:58:44;;;;;;;16.98;15.35;;;;;;;16.50;100.00;95729.66;5060956;28;20702;-84
2022/06/05 05:01:15;;;;;;;19.17;16.35;;;;;;;16.50;100.00;95704.28;5094738;28;20181;-83
2022/06/05 05:03:41;;;;;;;16.90;15.23;;;;;;;16.62;100.00;95667.94;5094518;28;20260;-82
2022/06/05 05:06:06;;;;;;;16.45;14.85;;;;;;;16.71;100.00;95659.03;5076338;28;20208;-84
2022/06/05 05:08:32;;;;;;;16.65;15.25;;;;;;;16.73;100.00;95656.22;5060912;28;20522;-84
2022/06/05 05:10:57;;;;;;;17.50;15.80;;;;;;;16.66;100.00;95632.50;5060481;28;20207;-83
2022/06/05 05:13:22;;;;;;;16.83;15.15;;;;;;;16.73;100.00;95601.97;5060226;28;20278;-84
2022/06/05 05:15:49;;;;;;;15.63;14.15;;;;;;;16.88;100.00;95575.69;5076150;28;20181;-82
2022/06/05 05:18:14;;;;;;;14.55;13.05;;;;;;;16.77;100.00;95552.56;5060129;28;20203;-83
2022/06/05 05:20:40;;;;;;;14.23;12.98;;;;;;;16.96;100.00;95534.44;5095079;28;20176;-83
2022/06/05 05:23:05;;;;;;;15.63;14.30;;;;;;;17.09;100.00;95522.44;5060570;28;20207;-82
2022/06/05 05:25:30;;;;;;;14.85;13.45;;;;;;;17.04;100.00;95519.53;5060360;28;20195;-84
2022/06/05 05:27:55;;;;;;;13.63;12.43;;;;;;;16.95;100.00;95516.22;5076526;28;20193;-82
2022/06/05 05:30:21;;;;;;;14.05;12.68;;;;;;;16.89;100.00;95517.00;5060293;28;20675;-83
2022/06/05 05:32:46;;;;;;;14.23;12.93;;;;;;;16.87;100.00;95517.19;5077074;28;20639;-83
2022/06/05 05:35:12;;;;;;;12.27;11.23;;;;;;;16.97;100.00;95522.13;5093394;28;20245;-81
2022/06/05 05:37:37;;;;;;;12.38;11.23;;;;;;;16.91;100.00;95515.81;5076601;28;20204;-82
2022/06/05 05:42:47;;;;;;;11.77;10.57;;;;;;;16.98;100.00;95519.31;5080180;28;20237;-82
2022/06/05 05:45:12;;;;;;;12.20;11.00;;;;;;;17.07;100.00;95527.88;5076312;28;20263;-81
2022/06/05 05:47:37;;;;;;;13.18;11.90;;;;;;;17.12;100.00;95541.22;5077301;28;20214;-83
2022/06/05 05:50:07;;;;;;;13.68;12.38;;;;;;;17.13;100.00;95548.09;5111505;28;20651;-82
2022/06/05 05:52:33;;;;;;;13.75;12.38;;;;;;;17.03;100.00;95552.03;5077275;28;20209;-82
2022/06/05 05:54:58;;;;;;;14.10;12.90;;;;;;;17.03;100.00;95562.50;5095163;28;20233;-83
2022/06/05 05:57:23;;;;;;;13.55;12.35;;;;;;;16.92;100.00;95574.31;5095739;28;20220;-84
2022/06/05 05:59:49;;;;;;;13.73;12.50;;;;;;;16.81;100.00;95588.75;5094476;28;20587;-84
2022/06/05 06:02:19;;;;;;;14.45;13.07;;;;;;;16.73;100.00;95583.59;5077854;28;20535;-82
2022/06/05 06:04:45;;;;;;;13.70;12.57;;;;;;;16.72;100.00;95583.78;5077405;28;20173;-81
2022/06/05 06:07:11;;;;;;;14.77;13.32;;;;;;;16.50;100.00;95573.22;5061043;28;20192;-83
2022/06/05 06:09:36;;;;;;;14.90;13.50;;;;;;;16.41;100.00;95567.25;5078693;28;20475;-83
2022/06/05 06:12:02;;;;;;;15.02;13.63;;;;;;;16.52;100.00;95555.50;5095375;28;20208;-83
2022/06/05 06:14:27;;;;;;;13.52;12.32;;;;;;;16.62;100.00;95542.91;5094745;28;20633;-82
2022/06/05 06:16:53;;;;;;;12.98;11.77;;;;;;;16.69;100.00;95540.38;5077952;28;20184;-82
2022/06/05 06:19:18;;;;;;;13.70;12.10;;;;;;;16.77;100.00;95542.88;5060224;28;20183;-83
2022/06/05 06:21:44;;;;;;;11.57;10.60;;;;;;;16.80;100.00;95541.72;5077343;28;20169;-84
2022/06/05 06:24:10;;;;;;;12.57;11.48;;;;;;;16.64;100.00;95530.44;5059040;28;20180;-83
2022/06/05 06:26:36;;;;;;;12.23;11.18;;;;;;;16.66;100.00;95522.38;5094780;28;20181;-82
2022/06/05 06:29:01;;;;;;;12.70;10.90;;;;;;;16.68;100.00;95523.84;5060679;28;20207;-82
2022/06/05 06:31:26;;;;;;;11.88;10.77;;;;;;;16.65;100.00;95516.31;5093522;28;20204;-82
2022/06/05 06:33:51;;;;;;;12.15;11.05;;;;;;;16.66;100.00;95519.75;5059706;28;20195;-82
2022/06/05 06:36:18;;;;;;;10.98;9.90;;;;;;;16.61;100.00;95512.47;5060155;28;20184;-83
2022/06/05 06:38:44;;;;;;;10.70;9.77;;;;;;;16.62;100.00;95503.59;5061196;28;20206;-83
2022/06/05 06:41:15;;;;;;;11.98;10.98;;;;;;;16.53;100.00;95493.41;5069550;28;20173;-82
2022/06/05 06:43:41;;;;;;;13.20;10.48;;;;;;;16.49;100.00;95471.97;5057424;28;20641;-80
2022/06/05 06:46:07;;;;;;;11.73;10.63;;;;;;;16.48;100.00;95461.69;5079107;28;20173;-84
2022/06/05 06:48:33;;;;;;;12.00;11.10;;;;;;;16.49;100.00;95450.19;5065785;28;20204;-82
2022/06/05 06:50:59;;;;;;;12.10;10.95;;;;;;;16.50;100.00;95442.16;5054136;28;20675;-83
2022/06/05 06:53:29;;;;;;;11.38;10.38;;;;;;;16.49;100.00;95435.28;5067208;28;20195;-83
2022/06/05 06:55:55;;;;;;;11.82;10.80;;;;;;;16.44;100.00;95419.31;5078116;28;20173;-83
2022/06/05 06:58:21;;;;;;;12.27;11.10;;;;;;;16.37;100.00;95416.63;5079481;28;20192;-83
2022/06/05 07:00:46;;;;;;;12.10;11.00;;;;;;;16.41;100.00;95415.25;5080431;28;20659;-83
2022/06/05 07:03:11;;;;;;;12.88;11.68;;;;;;;16.31;100.00;95406.88;5080936;28;20648;-82
2022/06/05 07:05:37;;;;;;;11.57;10.38;;;;;;;16.40;100.00;95420.69;5061763;28;20712;-80
2022/06/05 07:08:03;;;;;;;12.57;11.38;;;;;;;16.36;100.00;95430.72;5062396;28;20224;-81
2022/06/05 07:10:29;;;;;;;12.45;11.35;;;;;;;16.39;100.00;95434.78;5061466;28;20192;-80
2022/06/05 07:12:54;;;;;;;13.52;12.35;;;;;;;16.25;100.00;95467.06;5098018;28;20223;-80
2022/06/05 07:15:20;;;;;;;12.88;11.60;;;;;;;16.33;100.00;95448.63;5062414;28;20184;-81
2022/06/05 07:17:46;;;;;;;11.88;10.85;;;;;;;16.40;100.00;95418.06;5098656;28;20215;-79
2022/06/05 07:20:18;;;;;;;12.75;11.55;;;;;;;16.41;100.00;95417.88;5086383;28;20175;-78
2022/06/05 07:22:43;;;;;;;13.20;11.80;;;;;;;16.25;100.00;95422.53;5074324;28;20552;-79
2022/06/05 07:25:08;;;;;;;13.27;12.02;;;;;;;16.25;100.00;95398.94;5071896;28;20235;-81
2022/06/05 07:27:34;;;;;;;13.52;12.00;;;;;;;16.46;100.00;95396.34;5085809;28;20200;-82
2022/06/05 07:29:59;;;;;;;13.20;11.88;;;;;;;16.40;100.00;95431.16;5085031;28;20228;-82
2022/06/05 07:32:24;;;;;;;13.43;12.23;;;;;;;16.22;100.00;95443.88;5068864;28;20579;-81
2022/06/05 07:34:50;;;;;;;12.85;11.75;;;;;;;16.40;100.00;95415.44;5067729;28;20181;-80
2022/06/05 07:37:16;;;;;;;12.40;11.32;;;;;;;16.56;100.00;95409.97;5098670;28;20197;-79
2022/06/05 07:39:42;;;;;;;13.98;12.77;;;;;;;16.59;100.00;95414.81;5063924;28;20257;-80
2022/06/05 07:42:07;;;;;;;12.55;11.45;;;;;;;16.66;100.00;95405.19;5077255;28;20183;-83
2022/06/05 07:44:33;;;;;;;13.85;11.70;;;;;;;16.80;100.00;95398.31;5093983;28;20173;-81
2022/06/05 07:46:58;;;;;;;11.82;10.63;;;;;;;16.78;100.00;95394.22;5060669;28;20173;-80
2022/06/05 07:49:24;;;;;;;11.90;10.70;;;;;;;16.91;100.00;95394.34;5077694;28;20707;-80
2022/06/05 07:54:37;;;;;;;13.15;11.70;;;;;;;17.07;100.00;95409.81;5081153;28;20238;-78
2022/06/05 07:57:09;;;;;;;11.65;10.50;;;;;;;17.20;100.00;95406.44;5061376;28;20656;-78
2022/06/05 07:59:38;;;;;;;11.15;10.25;;;;;;;17.39;100.00;95397.06;5062519;28;20889;-78
2022/06/05 08:02:07;;;;;;;11.80;10.80;;;;;;;17.48;100.00;95398.53;5082972;28;20173;-79
2022/06/05 08:04:33;;;;;;;11.57;10.48;;;;;;;17.74;100.00;95398.69;5082678;28;20578;-79
2022/06/05 08:07:00;;;;;;;11.35;10.02;;;;;;;17.86;100.00;95396.34;5083545;28;20168;-80
2022/06/05 08:09:26;;;;;;;11.02;10.00;;;;;;;18.06;100.00;95385.91;5080770;28;20887;-79
2022/06/05 08:11:51;;;;;;;11.25;10.13;;;;;;;18.10;100.00;95376.59;5070293;28;20705;-80
2022/06/05 08:14:17;;;;;;;11.57;9.98;;;;;;;18.28;100.00;95374.22;5071698;28;20184;-78
2022/06/05 08:16:43;;;;;;;10.45;9.45;;;;;;;18.38;100.00;95364.16;5081297;28;20226;-80
2022/06/05 08:19:14;;;;;;;10.68;9.43;;;;;;;18.52;100.00;95364.16;5078926;28;20192;-79
2022/06/05 08:21:40;;;;;;;9.50;8.60;;;;;;;18.80;100.00;95372.69;5062607;28;20175;-80
2022/06/05 08:24:06;;;;;;;9.07;8.20;;;;;;;18.85;98.36;95378.16;5078425;28;20230;-80
2022/06/05 08:26:31;;;;;;;9.13;8.15;;;;;;;18.96;96.75;95366.19;5062428;28;20188;-79
2022/06/05 08:28:56;;;;;;;9.02;8.23;;;;;;;19.40;96.30;95370.78;5063082;28;20268;-80
2022/06/05 08:31:22;;;;;;;8.27;7.57;;;;;;;19.58;95.57;95380.69;5063446;28;20240;-80
2022/06/05 08:33:47;;;;;;;8.93;8.13;;;;;;;19.48;95.28;95370.56;5082308;28;20201;-78
2022/06/05 08:36:12;;;;;;;7.82;7.20;;;;;;;19.70;94.62;95365.88;5082020;28;20211;-80
2022/06/05 08:41:28;;;;;;;8.52;7.20;;;;;;;20.26;91.60;95364.38;5084676;28;20203;-80
2022/06/05 08:44:12;;;;;;;7.40;6.70;;;;;;;20.91;89.06;95354.41;5099753;28;20552;-80
2022/06/05 08:46:57;;;;;;;6.40;5.85;;;;;;;21.08;85.40;95367.88;5100581;28;20225;-79
2022/06/05 08:49:30;;;;;;;5.88;5.28;;;;;;;21.08;86.60;95375.78;5080988;28;20185;-78
2022/06/05 08:52:20;;;;;;;7.45;6.03;;;;;;;21.65;84.27;95376.47;5080135;28;20215;-78
2022/06/05 08:54:52;;;;;;;7.97;5.93;;;;;;;22.04;82.19;95380.47;5053076;28;20181;-77
2022/06/05 08:57:33;;;;;;;6.97;6.35;;;;;;;22.07;84.35;95395.91;5064373;28;20602;-79
2022/06/05 09:00:05;;;;;;;6.57;5.97;;;;;;;22.28;82.01;95392.00;5099780;28;20200;-78
2022/06/05 09:02:36;;;;;;;12.00;7.70;;;;;;;22.55;78.45;95397.72;5080757;28;20258;-78
2022/06/05 09:05:04;;;;;;;14.65;9.80;;;;;;;21.98;78.65;95400.66;5080075;28;20173;-79
2022/06/05 09:07:43;;;;;;;12.88;10.80;;;;;;;22.37;78.58;95395.13;5099635;28;20207;-79
2022/06/05 09:10:25;;;;;;;13.55;9.68;;;;;;;22.21;78.32;95393.91;5080789;28;20176;-77
2022/06/05 09:12:55;;;;;;;13.23;9.82;;;;;;;22.39;78.49;95395.72;5063873;28;20177;-79
2022/06/05 09:15:29;;;;;;;12.00;9.20;;;;;;;22.42;77.19;95392.59;5080112;28;20207;-79
2022/06/05 09:17:58;;;;;;;10.85;8.75;;;;;;;22.34;78.16;95383.13;5081207;28;20294;-79
2022/06/05 09:20:36;;;;;;;11.15;8.48;;;;;;;22.37;78.98;95397.78;5063497;28;20187;-79
2022/06/05 09:23:06;;;;;;;10.23;8.43;;;;;;;22.14;79.43;95423.09;5063362;28;20180;-79
2022/06/05 09:25:43;;;;;;;11.88;9.32;;;;;;;21.97;80.10;95443.19;5063171;28;20185;-80
2022/06/05 09:28:35;;;;;;;11.95;9.20;;;;;;;21.64;82.40;95469.97;5079941;28;20210;-80
2022/06/05 09:31:33;;;;;;;12.30;9.13;;;;;;;21.89;80.31;95473.38;5097916;28;20254;-78
2022/06/05 09:34:00;;;;;;;11.13;8.55;;;;;;;22.05;79.68;95467.50;5078936;28;20173;-79
2022/06/05 09:36:27;;;;;;;10.18;9.00;;;;;;;22.28;80.17;95466.88;5080143;28;20208;-79
2022/06/05 09:38:57;;;;;;;12.30;8.52;;;;;;;22.18;78.41;95468.44;5062565;28;20192;-79
2022/06/05 09:41:41;;;;;;;10.57;8.40;;;;;;;22.59;78.82;95467.69;5062167;28;20213;-79
2022/06/05 09:44:27;;;;;;;8.50;7.63;;;;;;;22.73;78.44;95463.84;5079255;28;20245;-80
2022/06/05 09:46:58;;;;;;;9.35;7.63;;;;;;;23.01;77.57;95462.44;5061487;28;20172;-78
2022/06/05 09:49:45;;;;;;;9.60;7.93;;;;;;;23.78;75.34;95468.53;5062088;28;20713;-80
2022/06/05 09:52:18;;;;;;;9.02;7.13;;;;;;;23.83;74.26;95471.28;5075083;28;20212;-79
2022/06/05 09:55:15;;;;;;;8.25;7.45;;;;;;;23.63;73.63;95476.13;5074697;28;20717;-84
2022/06/05 10:00:49;;;;;;;10.80;8.18;;;;;;;24.22;71.14;95463.63;5093436;28;20565;-82
2022/06/05 10:03:18;;;;;;;11.95;8.57;;;;;;;25.07;68.44;95460.97;5075421;28;20640;-80
2022/06/05 10:05:47;;;;;;;9.40;8.50;;;;;;;24.81;69.70;95464.22;5057859;28;20177;-81
2022/06/05 10:08:24;;;;;;;11.27;9.18;;;;;;;24.81;68.89;95462.34;5059586;28;20628;-81
2022/06/05 10:10:53;;;;;;;9.18;8.32;;;;;;;25.05;67.48;95471.06;5063201;28;20242;-80
2022/06/05 10:13:40;;;;;;;9.98;9.07;;;;;;;24.95;68.85;95454.09;5064447;28;20593;-80
2022/06/05 10:16:10;;;;;;;10.10;9.07;;;;;;;25.27;66.25;95463.19;5098322;28;20172;-82
2022/06/05 10:18:44;;;;;;;11.82;8.80;;;;;;;25.41;66.11;95447.72;5063273;28;20199;-82
2022/06/05 10:21:11;;;;;;;9.90;8.90;;;;;;;24.95;66.96;95438.97;5080610;28;20437;-81
2022/06/05 10:23:51;;;;;;;9.45;8.45;;;;;;;24.85;66.28;95436.94;5063451;28;20264;-80
2022/06/05 10:26:29;;;;;;;9.55;8.55;;;;;;;24.75;66.72;95428.00;5080063;28;20184;-82
2022/06/05 10:29:20;;;;;;;10.07;8.20;;;;;;;24.62;67.01;95433.59;5062209;28;20192;-82
2022/06/05 10:31:57;;;;;;;8.82;7.93;;;;;;;24.30;68.01;95442.03;5062306;28;20626;-82
2022/06/05 10:34:28;;;;;;;8.48;7.68;;;;;;;24.13;69.70;95441.94;5079968;28;20172;-82
2022/06/05 10:37:17;;;;;;;8.93;7.97;;;;;;;23.73;71.11;95450.66;5079624;28;20177;-82
2022/06/05 10:40:08;;;;;;;8.25;7.45;;;;;;;23.60;71.12;95442.94;5098044;28;20188;-83
2022/06/05 10:42:38;;;;;;;7.85;7.05;;;;;;;23.72;71.24;95448.22;5079901;28;20187;-82
2022/06/05 10:45:28;;;;;;;7.97;6.55;;;;;;;23.78;71.68;95449.97;5078369;28;20200;-82
2022/06/05 10:47:57;;;;;;;7.93;7.13;;;;;;;23.95;70.75;95448.22;5080009;28;20200;-82
2022/06/05 10:50:26;;;;;;;8.10;6.63;;;;;;;23.96;70.45;95447.16;5081423;28;20663;-82
2022/06/05 10:53:11;;;;;;;7.20;6.28;;;;;;;23.73;71.74;95444.53;5061929;28;20208;-82
2022/06/05 10:55:43;;;;;;;6.68;6.07;;;;;;;23.51;72.89;95446.16;5053710;28;20196;-81
2022/06/05 10:58:13;;;;;;;6.38;5.78;;;;;;;23.91;71.01;95433.78;5078810;28;20197;-82
2022/06/05 11:01:02;;;;;;;6.80;6.20;;;;;;;23.34;74.30;95436.22;5080866;28;20626;-79
2022/06/05 11:03:33;;;;;;;6.63;6.03;;;;;;;23.94;72.07;95443.13;5062540;28;20544;-81
2022/06/05 11:06:19;;;;;;;8.77;6.10;;;;;;;23.69;72.66;95441.56;5077698;28;20181;-83
2022/06/05 11:08:56;;;;;;;7.28;5.78;;;;;;;24.02;69.72;95435.59;5063416;28;20217;-82
2022/06/05 11:14:40;;;;;;;5.88;5.47;;;;;;;23.56;70.59;95441.75;5064138;28;20176;-81
2022/06/05 11:17:46;;;;;;;7.55;5.10;;;;;;;23.79;70.41;95450.78;5080547;28;20178;-80
2022/06/05 11:20:16;;;;;;;8.18;5.85;;;;;;;23.46;71.41;95452.94;5017648;28;20203;-82
2022/06/05 11:22:59;;;;;;;5.88;5.47;;;;;;;23.65;72.23;95450.19;5017647;28;20254;-82
2022/06/05 11:25:36;;;;;;;5.80;5.32;;;;;;;24.37;70.18;95447.19;5017996;28;20203;-82
2022/06/05 11:28:30;;;;;;;5.07;4.68;;;;;;;24.79;69.97;95445.06;5036564;28;20203;-83
2022/06/05 11:31:30;;;;;;;5.85;5.35;;;;;;;24.65;68.57;95430.47;5021318;28;20242;-81
2022/06/05 11:34:03;;;;;;;5.60;5.10;;;;;;;25.46;66.70;95431.84;5019711;28;20599;-83
2022/06/05 11:36:31;;;;;;;5.88;5.10;;;;;;;25.52;65.75;95428.19;5004272;28;20202;-82
2022/06/05 11:39:12;;;;;;;5.28;4.88;;;;;;;25.79;63.70;95417.69;5035524;28;20207;-82
2022/06/05 11:41:43;;;;;;;4.90;4.47;;;;;;;25.39;65.56;95405.44;5016173;28;20194;-81
2022/06/05 11:44:22;;;;;;;4.57;4.15;;;;;;;25.74;62.51;95401.69;4999105;28;20179;-81
2022/06/05 11:46:54;;;;;;;5.03;4.53;;;;;;;26.33;62.59;95385.91;5031693;28;20633;-84
2022/06/05 11:49:44;;;;;;;5.78;4.47;;;;;;;26.31;63.82;95387.19;4998310;28;20179;-82
2022/06/05 11:52:26;;;;;;;4.75;4.30;;;;;;;26.63;61.62;95389.94;5058832;28;20197;-82